Time;durP1;ratioP1;P1;durP2;ratioP2;P2;SDS_P1;SDS_P2;PMS_P1;PMS_P2;Temp;Humidity;BMP_temperature;BMP_pressure;BME280_temperature;BME280_humidity;BME280_pressure;Samples;Min_cycle;Max_cycle;Signal;HPM_P1;HPM_P2
2024/01/14 00:00:55;;;;;;;68.22;21.27;;;3.30;99.90;;;;;;5092273;28;20088;-65
2024/01/14 00:03:21;;;;;;;87.43;25.95;;;3.20;99.90;;;;;;5092066;28;20029;-65
2024/01/14 00:05:47;;;;;;;68.72;20.95;;;3.20;99.90;;;;;;5092196;28;20028;-66
2024/01/14 00:08:13;;;;;;;82.10;22.30;;;3.30;99.90;;;;;;5092157;28;20029;-66
2024/01/14 00:10:39;;;;;;;60.83;20.38;;;3.30;99.90;;;;;;5092132;28;20097;-67
2024/01/14 00:13:04;;;;;;;73.53;25.33;;;3.30;99.90;;;;;;5092230;28;20080;-66
2024/01/14 00:15:30;;;;;;;85.55;23.30;;;3.30;99.90;;;;;;5092086;28;20025;-65
2024/01/14 00:17:56;;;;;;;63.17;20.15;;;3.30;99.90;;;;;;5092101;28;20032;-66
2024/01/14 00:20:21;;;;;;;82.45;23.63;;;3.30;99.90;;;;;;5091009;28;20052;-66
2024/01/14 00:22:47;;;;;;;91.88;24.98;;;3.30;99.90;;;;;;5092133;28;20032;-66
2024/01/14 00:25:13;;;;;;;71.82;24.08;;;3.30;99.90;;;;;;5092065;28;20037;-66
2024/01/14 00:27:39;;;;;;;65.50;20.80;;;3.20;99.90;;;;;;5091939;28;20040;-66
2024/01/14 00:30:06;;;;;;;65.20;23.23;;;3.20;99.90;;;;;;5094544;28;20033;-66
2024/01/14 00:32:32;;;;;;;70.18;23.15;;;3.20;99.90;;;;;;5095943;28;20031;-66
2024/01/14 00:34:57;;;;;;;85.13;24.55;;;3.20;99.90;;;;;;5095053;28;20100;-66
2024/01/14 00:37:23;;;;;;;81.20;23.95;;;3.20;99.90;;;;;;5095994;28;20032;-66
2024/01/14 00:39:49;;;;;;;90.95;28.13;;;3.20;99.90;;;;;;5096002;28;20033;-66
2024/01/14 00:42:15;;;;;;;72.93;24.13;;;3.20;99.90;;;;;;5095918;28;20107;-66
2024/01/14 00:44:44;;;;;;;74.55;23.52;;;3.20;99.90;;;;;;5095857;28;20044;-66
2024/01/14 00:47:09;;;;;;;71.95;22.83;;;3.20;99.90;;;;;;5095735;28;20032;-66
2024/01/14 00:49:35;;;;;;;73.35;21.60;;;3.20;99.90;;;;;;5095607;28;20067;-67
2024/01/14 00:52:00;;;;;;;70.88;24.55;;;3.20;99.90;;;;;;5095717;28;20050;-65
2024/01/14 00:54:26;;;;;;;63.75;22.33;;;3.20;99.90;;;;;;5094652;28;20067;-66
2024/01/14 00:56:52;;;;;;;73.25;22.27;;;3.20;99.90;;;;;;5095584;28;20108;-66
2024/01/14 00:59:17;;;;;;;62.58;20.52;;;3.20;99.90;;;;;;5095573;28;20028;-66
2024/01/14 01:01:43;;;;;;;81.07;23.63;;;3.30;99.90;;;;;;5095537;28;20088;-67
2024/01/14 01:04:09;;;;;;;76.60;23.58;;;3.20;99.90;;;;;;5095263;28;20024;-66
2024/01/14 01:06:35;;;;;;;66.45;22.25;;;3.20;99.90;;;;;;5095370;28;20039;-66
2024/01/14 01:09:00;;;;;;;75.63;21.48;;;3.20;99.90;;;;;;5095115;28;20058;-65
2024/01/14 01:11:26;;;;;;;74.60;22.60;;;3.20;99.90;;;;;;5095191;28;20054;-66
2024/01/14 01:13:52;;;;;;;77.68;21.23;;;3.20;99.90;;;;;;5095263;28;20066;-66
2024/01/14 01:16:18;;;;;;;66.85;21.40;;;3.10;99.90;;;;;;5095269;28;20020;-66
2024/01/14 01:18:43;;;;;;;75.47;21.35;;;3.20;99.90;;;;;;5095207;28;20044;-65
2024/01/14 01:21:09;;;;;;;68.10;22.40;;;3.20;99.90;;;;;;5095099;28;20124;-66
2024/01/14 01:23:35;;;;;;;68.97;21.63;;;3.20;99.90;;;;;;5095086;28;20088;-66
2024/01/14 01:26:00;;;;;;;68.63;22.02;;;3.20;99.90;;;;;;5095019;28;20029;-66
2024/01/14 01:28:26;;;;;;;78.95;21.60;;;3.20;99.90;;;;;;5094997;28;20032;-66
2024/01/14 01:30:52;;;;;;;73.20;24.50;;;3.20;99.90;;;;;;5094966;28;20036;-65
2024/01/14 01:33:17;;;;;;;70.38;21.58;;;3.20;99.90;;;;;;5094707;28;20032;-66
2024/01/14 01:35:43;;;;;;;76.18;21.80;;;3.20;99.90;;;;;;5094955;28;20024;-66
2024/01/14 01:38:09;;;;;;;67.85;20.95;;;3.20;99.90;;;;;;5094848;28;20044;-66
2024/01/14 01:40:34;;;;;;;71.25;20.75;;;3.30;99.90;;;;;;5094459;28;20090;-67
2024/01/14 01:43:00;;;;;;;59.40;19.55;;;3.30;99.90;;;;;;5094778;28;20025;-66
2024/01/14 01:45:25;;;;;;;61.03;20.85;;;3.30;99.90;;;;;;5094730;28;20028;-66
2024/01/14 01:47:52;;;;;;;52.60;18.75;;;3.30;99.90;;;;;;5094624;28;20044;-66
2024/01/14 01:50:17;;;;;;;64.53;19.88;;;3.30;99.90;;;;;;5094471;28;20044;-66
2024/01/14 01:52:44;;;;;;;65.75;20.13;;;3.40;99.90;;;;;;5094587;28;20084;-66
2024/01/14 01:55:11;;;;;;;65.70;19.60;;;3.40;99.90;;;;;;5094537;28;20028;-67
2024/01/14 01:57:37;;;;;;;59.30;20.30;;;3.40;99.90;;;;;;5094494;28;20024;-66
2024/01/14 02:00:03;;;;;;;64.45;19.88;;;3.40;99.90;;;;;;5094488;28;20482;-65
2024/01/14 02:02:29;;;;;;;61.00;20.08;;;3.40;99.90;;;;;;5094281;28;20025;-66
2024/01/14 02:04:55;;;;;;;66.72;20.75;;;3.40;99.90;;;;;;5094350;28;20052;-66
2024/01/14 02:07:20;;;;;;;59.60;20.55;;;3.40;99.90;;;;;;5094127;28;20036;-66
2024/01/14 02:09:47;;;;;;;63.88;21.73;;;3.40;99.90;;;;;;5094227;28;20028;-67
2024/01/14 02:12:13;;;;;;;57.22;20.00;;;3.40;99.90;;;;;;5094280;28;20024;-65
2024/01/14 02:14:38;;;;;;;67.10;21.27;;;3.40;99.90;;;;;;5094119;28;20072;-67
2024/01/14 02:17:04;;;;;;;58.28;19.23;;;3.40;99.90;;;;;;5094212;28;20033;-67
2024/01/14 02:19:30;;;;;;;59.72;19.30;;;3.40;99.90;;;;;;5094118;28;20093;-66
2024/01/14 02:22:07;;;;;;;63.60;20.50;;;3.40;99.90;;;;;;5093890;28;20029;-66
2024/01/14 02:24:34;;;;;;;56.70;19.05;;;3.40;99.90;;;;;;5093927;28;20023;-66
2024/01/14 02:27:00;;;;;;;51.45;18.15;;;3.40;99.90;;;;;;5093883;28;20021;-66
2024/01/14 02:29:28;;;;;;;60.75;18.98;;;3.40;99.90;;;;;;5093894;28;20031;-66
2024/01/14 02:31:54;;;;;;;51.53;18.00;;;3.40;99.90;;;;;;5093621;28;20023;-66
2024/01/14 02:34:20;;;;;;;61.60;20.50;;;3.40;99.90;;;;;;5093857;28;20021;-66
2024/01/14 02:36:46;;;;;;;67.53;20.52;;;3.40;99.90;;;;;;5093601;28;20025;-66
2024/01/14 02:39:11;;;;;;;58.80;17.95;;;3.40;99.90;;;;;;5093708;28;20054;-66
2024/01/14 02:41:37;;;;;;;52.45;16.13;;;3.40;99.90;;;;;;5093567;28;20059;-65
2024/01/14 02:44:03;;;;;;;67.40;20.55;;;3.40;99.90;;;;;;5092485;28;20039;-66
2024/01/14 02:46:29;;;;;;;59.67;18.02;;;3.40;99.90;;;;;;5093550;28;20103;-66
2024/01/14 02:48:55;;;;;;;58.30;18.73;;;3.40;99.90;;;;;;5093456;28;20100;-66
2024/01/14 02:51:22;;;;;;;60.17;19.48;;;3.40;99.90;;;;;;5092884;28;20048;-65
2024/01/14 02:53:48;;;;;;;61.92;17.50;;;3.40;99.90;;;;;;5093187;28;20062;-66
2024/01/14 02:56:13;;;;;;;55.80;18.13;;;3.40;99.90;;;;;;5093361;28;20040;-66
2024/01/14 02:58:39;;;;;;;62.85;19.55;;;3.40;99.90;;;;;;5092331;28;20029;-66
2024/01/14 03:01:05;;;;;;;52.85;17.15;;;3.30;99.90;;;;;;5093226;28;20044;-66
2024/01/14 03:03:31;;;;;;;42.25;15.63;;;3.30;99.90;;;;;;5092987;28;20024;-65
2024/01/14 03:05:56;;;;;;;52.08;17.67;;;3.40;99.90;;;;;;5093012;28;20021;-65
2024/01/14 03:08:22;;;;;;;54.88;17.40;;;3.30;99.90;;;;;;5092980;28;20028;-66
2024/01/14 03:10:48;;;;;;;51.95;17.00;;;3.40;99.90;;;;;;5093053;28;20031;-65
2024/01/14 03:13:15;;;;;;;58.00;18.67;;;3.40;99.90;;;;;;5093109;28;20043;-66
2024/01/14 03:15:44;;;;;;;60.90;17.95;;;3.40;99.90;;;;;;5093014;28;20402;-66
2024/01/14 03:18:11;;;;;;;51.72;18.77;;;3.40;99.90;;;;;;5092883;28;20055;-66
2024/01/14 03:20:37;;;;;;;49.70;16.98;;;3.40;99.90;;;;;;5092752;28;20096;-66
2024/01/14 03:23:03;;;;;;;56.22;19.48;;;3.40;99.90;;;;;;5091919;28;20033;-66
2024/01/14 03:25:29;;;;;;;51.47;17.38;;;3.40;99.90;;;;;;5092907;28;20024;-65
2024/01/14 03:27:54;;;;;;;67.72;22.02;;;3.40;99.90;;;;;;5092741;28;20032;-67
2024/01/14 03:30:20;;;;;;;63.50;22.13;;;3.40;99.90;;;;;;5092790;28;20043;-66
2024/01/14 03:32:46;;;;;;;65.80;21.15;;;3.40;99.90;;;;;;5092371;28;20387;-66
2024/01/14 03:35:11;;;;;;;67.75;21.35;;;3.30;99.90;;;;;;5091579;28;20040;-66
2024/01/14 03:37:37;;;;;;;72.68;21.33;;;3.30;99.90;;;;;;5092441;28;20052;-66
2024/01/14 03:40:03;;;;;;;51.35;19.33;;;3.30;99.90;;;;;;5092575;28;20048;-65
2024/01/14 03:42:29;;;;;;;64.22;21.20;;;3.30;99.90;;;;;;5091503;28;20044;-66
2024/01/14 03:44:55;;;;;;;65.45;19.98;;;3.30;99.90;;;;;;5092415;28;20032;-66
2024/01/14 03:47:21;;;;;;;60.15;18.52;;;3.30;99.90;;;;;;5092321;28;20039;-66
2024/01/14 03:49:46;;;;;;;61.50;18.55;;;3.30;99.90;;;;;;5092109;28;20025;-66
2024/01/14 03:52:12;;;;;;;66.50;21.33;;;3.30;99.90;;;;;;5092384;28;20032;-65
2024/01/14 03:54:37;;;;;;;66.00;19.27;;;3.30;99.90;;;;;;5092416;28;20055;-67
2024/01/14 03:57:03;;;;;;;76.57;22.23;;;3.30;99.90;;;;;;5092379;28;20036;-67
2024/01/14 03:59:29;;;;;;;60.28;20.42;;;3.30;99.90;;;;;;5092366;28;20025;-66
2024/01/14 04:01:54;;;;;;;66.63;20.60;;;3.20;99.90;;;;;;5092135;28;20032;-66
2024/01/14 04:04:20;;;;;;;57.33;20.63;;;3.20;99.90;;;;;;5092208;28;20035;-66
2024/01/14 04:06:46;;;;;;;58.05;20.60;;;3.20;99.90;;;;;;5092097;28;20044;-66
2024/01/14 04:09:11;;;;;;;54.72;16.98;;;3.20;99.90;;;;;;5092122;28;20025;-66
2024/01/14 04:11:37;;;;;;;57.10;18.55;;;3.30;99.90;;;;;;5092231;28;20013;-66
2024/01/14 04:14:02;;;;;;;59.55;20.77;;;3.30;99.90;;;;;;5092124;28;20440;-66
2024/01/14 04:16:41;;;;;;;57.60;18.08;;;3.30;99.90;;;;;;5092122;28;20071;-66
2024/01/14 04:19:07;;;;;;;49.78;17.20;;;3.30;99.90;;;;;;5092117;28;20028;-66
2024/01/14 04:21:33;;;;;;;62.33;18.73;;;3.30;99.90;;;;;;5092106;28;20035;-66
2024/01/14 04:23:59;;;;;;;63.95;21.13;;;3.30;99.90;;;;;;5092211;28;20025;-65
2024/01/14 04:26:25;;;;;;;58.92;18.20;;;3.30;99.90;;;;;;5092094;28;20049;-66
2024/01/14 04:28:51;;;;;;;55.03;16.98;;;3.30;99.90;;;;;;5091909;28;20044;-66
2024/01/14 04:31:18;;;;;;;47.83;18.10;;;3.30;99.90;;;;;;5091933;28;20020;-66
2024/01/14 04:33:44;;;;;;;56.55;19.10;;;3.30;99.90;;;;;;5091817;28;20047;-66
2024/01/14 04:36:10;;;;;;;55.95;18.50;;;3.30;99.90;;;;;;5092028;28;20028;-66
2024/01/14 04:38:36;;;;;;;62.58;21.48;;;3.30;99.90;;;;;;5091903;28;20037;-66
2024/01/14 04:41:01;;;;;;;56.95;17.20;;;3.20;99.90;;;;;;5091941;28;20044;-66
2024/01/14 04:43:28;;;;;;;62.13;19.50;;;3.20;99.90;;;;;;5091904;28;20054;-65
2024/01/14 04:45:53;;;;;;;57.08;17.95;;;3.20;99.90;;;;;;5091721;28;20032;-66
2024/01/14 04:48:19;;;;;;;54.88;18.67;;;3.20;99.90;;;;;;5091763;28;20025;-66
2024/01/14 04:50:45;;;;;;;47.25;17.40;;;3.20;99.90;;;;;;5091721;28;20057;-67
2024/01/14 04:53:11;;;;;;;53.78;17.52;;;3.10;99.90;;;;;;5090833;28;20032;-66
2024/01/14 04:55:37;;;;;;;60.97;19.92;;;3.10;99.90;;;;;;5091789;28;20013;-66
2024/01/14 04:58:03;;;;;;;50.35;17.58;;;3.10;99.90;;;;;;5091756;28;20036;-66
2024/01/14 05:00:29;;;;;;;63.05;19.42;;;3.10;99.90;;;;;;5091637;28;20103;-65
2024/01/14 05:02:54;;;;;;;52.63;17.20;;;3.10;99.90;;;;;;5091541;28;20036;-66
2024/01/14 05:05:20;;;;;;;54.38;17.67;;;3.10;99.90;;;;;;5091652;28;20080;-66
2024/01/14 05:07:46;;;;;;;52.33;17.17;;;3.10;99.90;;;;;;5091458;28;20033;-67
2024/01/14 05:10:11;;;;;;;64.30;21.80;;;3.10;99.90;;;;;;5091575;28;20085;-66
2024/01/14 05:12:37;;;;;;;46.63;16.38;;;3.10;99.90;;;;;;5091618;28;20029;-66
2024/01/14 05:15:03;;;;;;;48.50;16.85;;;3.10;99.90;;;;;;5092334;28;20028;-66
2024/01/14 05:17:29;;;;;;;48.10;15.23;;;3.10;99.90;;;;;;5095232;28;20025;-67
2024/01/14 05:19:55;;;;;;;62.05;20.83;;;3.00;99.90;;;;;;5095105;28;20051;-65
2024/01/14 05:22:20;;;;;;;53.80;18.27;;;3.00;99.90;;;;;;5095188;28;20033;-66
2024/01/14 05:24:46;;;;;;;44.28;15.63;;;3.10;99.90;;;;;;5095090;28;20024;-66
2024/01/14 05:27:13;;;;;;;55.05;18.55;;;3.00;99.90;;;;;;5095019;28;20031;-66
2024/01/14 05:29:42;;;;;;;42.83;14.75;;;3.00;99.90;;;;;;5094930;28;20016;-66
2024/01/14 05:32:11;;;;;;;54.63;18.92;;;3.00;99.90;;;;;;5094834;28;20021;-66
2024/01/14 05:34:37;;;;;;;51.85;16.58;;;3.00;99.90;;;;;;5095036;28;20020;-66
2024/01/14 05:37:03;;;;;;;43.75;16.17;;;2.90;99.90;;;;;;5094887;28;20059;-66
2024/01/14 05:39:30;;;;;;;48.83;16.38;;;2.90;99.90;;;;;;5094853;28;20063;-66
2024/01/14 05:41:56;;;;;;;41.83;15.00;;;3.00;99.90;;;;;;5094787;28;20021;-66
2024/01/14 05:44:21;;;;;;;41.45;15.35;;;3.00;99.90;;;;;;5094816;28;20119;-66
2024/01/14 05:46:47;;;;;;;41.92;14.05;;;2.90;99.90;;;;;;5094753;28;20033;-66
2024/01/14 05:49:13;;;;;;;44.72;16.80;;;2.90;99.90;;;;;;5094626;28;20095;-65
2024/01/14 05:51:39;;;;;;;44.95;14.50;;;2.90;99.90;;;;;;5094357;28;20053;-66
2024/01/14 05:54:05;;;;;;;41.97;14.43;;;2.90;99.90;;;;;;5094640;28;20169;-65
2024/01/14 05:56:31;;;;;;;37.20;13.93;;;3.00;99.90;;;;;;5094507;28;20020;-66
2024/01/14 05:58:56;;;;;;;39.33;12.27;;;2.90;99.90;;;;;;5094407;28;20064;-66
2024/01/14 06:01:22;;;;;;;37.75;13.90;;;2.90;99.90;;;;;;5094427;28;20058;-66
2024/01/14 06:03:48;;;;;;;36.95;12.82;;;2.90;99.90;;;;;;5094248;28;20028;-66
2024/01/14 06:06:13;;;;;;;42.28;14.38;;;2.90;99.90;;;;;;5094339;28;20035;-66
2024/01/14 06:08:41;;;;;;;34.38;11.73;;;2.90;99.90;;;;;;5094223;28;20040;-65
2024/01/14 06:11:07;;;;;;;38.85;13.25;;;2.90;99.90;;;;;;5094222;28;20025;-65
2024/01/14 06:13:32;;;;;;;31.05;14.02;;;2.90;99.90;;;;;;5094249;28;20069;-66
2024/01/14 06:15:59;;;;;;;44.35;14.73;;;2.80;99.90;;;;;;5094224;28;20051;-66
2024/01/14 06:18:25;;;;;;;36.13;13.35;;;2.80;99.90;;;;;;5076513;28;20035;-65
2024/01/14 06:20:50;;;;;;;42.40;13.68;;;2.80;99.90;;;;;;5092843;28;20036;-66
2024/01/14 06:23:16;;;;;;;42.60;14.57;;;2.80;99.90;;;;;;5092925;28;20028;-66
2024/01/14 06:25:42;;;;;;;44.08;13.80;;;2.80;99.90;;;;;;5094020;28;20031;-66
2024/01/14 06:28:08;;;;;;;38.85;14.32;;;2.90;99.90;;;;;;5092804;28;20127;-66
2024/01/14 06:30:34;;;;;;;36.58;13.15;;;2.80;99.90;;;;;;5093830;28;20052;-66
2024/01/14 06:33:00;;;;;;;38.50;13.38;;;2.90;99.90;;;;;;5092613;28;20036;-66
2024/01/14 06:35:25;;;;;;;35.50;12.02;;;2.80;99.90;;;;;;5093857;28;20021;-66
2024/01/14 06:37:51;;;;;;;36.42;14.48;;;2.80;99.90;;;;;;5093763;28;20360;-65
2024/01/14 06:40:17;;;;;;;38.78;12.75;;;2.80;99.90;;;;;;5093731;28;20051;-65
2024/01/14 06:42:43;;;;;;;38.63;13.35;;;2.80;99.90;;;;;;5093571;28;20037;-66
2024/01/14 06:45:09;;;;;;;38.45;14.45;;;2.80;99.90;;;;;;5093539;28;20036;-66
2024/01/14 06:47:35;;;;;;;42.15;14.63;;;2.80;99.90;;;;;;5093485;28;20043;-66
2024/01/14 06:50:00;;;;;;;43.95;13.50;;;2.80;99.90;;;;;;5041333;28;20076;-66
2024/01/14 06:52:26;;;;;;;43.90;14.35;;;2.80;99.90;;;;;;5053445;28;20029;-66
2024/01/14 06:54:52;;;;;;;38.53;13.30;;;2.80;99.90;;;;;;5053435;28;20021;-66
2024/01/14 06:57:18;;;;;;;41.53;16.52;;;2.80;99.90;;;;;;5053387;28;20017;-66
2024/01/14 06:59:44;;;;;;;42.13;14.07;;;2.80;99.90;;;;;;5053391;28;20105;-67
2024/01/14 07:02:12;;;;;;;35.60;12.80;;;2.70;99.90;;;;;;5053162;28;20081;-67
2024/01/14 07:04:38;;;;;;;33.55;12.88;;;2.70;99.90;;;;;;5053231;28;20025;-66
2024/01/14 07:07:04;;;;;;;36.13;12.50;;;2.70;99.90;;;;;;5053118;28;20030;-66
2024/01/14 07:09:29;;;;;;;38.60;13.27;;;2.70;99.90;;;;;;5053027;28;20037;-66
2024/01/14 07:11:55;;;;;;;40.53;14.15;;;2.70;99.90;;;;;;5053145;28;20025;-67
2024/01/14 07:14:22;;;;;;;39.05;13.68;;;2.70;99.90;;;;;;5053035;28;20025;-67
2024/01/14 07:16:48;;;;;;;45.22;14.02;;;2.70;99.90;;;;;;5053057;28;20066;-66
2024/01/14 07:19:15;;;;;;;41.92;13.82;;;2.70;99.90;;;;;;5082725;28;20398;-66
2024/01/14 07:21:40;;;;;;;37.92;14.68;;;2.70;99.90;;;;;;5092485;28;20028;-67
2024/01/14 07:24:06;;;;;;;55.10;20.13;;;2.70;99.90;;;;;;5091877;28;20079;-66
2024/01/14 07:26:32;;;;;;;43.17;13.93;;;2.70;99.90;;;;;;5091640;28;20016;-67
2024/01/14 07:28:57;;;;;;;41.10;15.90;;;2.70;99.90;;;;;;5091876;28;20037;-67
2024/01/14 07:31:27;;;;;;;45.42;16.00;;;2.80;99.90;;;;;;5092756;28;20032;-67
2024/01/14 07:33:53;;;;;;;45.33;18.05;;;2.80;99.90;;;;;;5074941;28;20025;-66
2024/01/14 07:36:19;;;;;;;43.70;16.63;;;2.80;99.90;;;;;;5072620;28;20091;-65
2024/01/14 07:38:45;;;;;;;40.65;15.63;;;2.80;99.90;;;;;;5072364;28;20044;-65
2024/01/14 07:41:15;;;;;;;39.10;13.95;;;2.70;99.90;;;;;;5072519;28;20398;-66
2024/01/14 07:43:41;;;;;;;42.20;13.23;;;2.70;99.90;;;;;;5072472;28;20032;-65
2024/01/14 07:46:07;;;;;;;36.83;13.27;;;2.80;99.90;;;;;;5072446;28;20037;-66
2024/01/14 07:48:34;;;;;;;41.25;13.05;;;2.80;99.90;;;;;;5072406;28;20031;-65
2024/01/14 07:51:00;;;;;;;46.75;13.90;;;2.80;99.90;;;;;;5072303;28;20124;-66
2024/01/14 07:53:26;;;;;;;42.78;15.07;;;2.80;99.90;;;;;;5072326;28;20021;-66
2024/01/14 07:55:52;;;;;;;42.97;14.70;;;2.80;99.90;;;;;;5071435;28;20025;-66
2024/01/14 07:58:18;;;;;;;43.75;14.27;;;2.80;99.90;;;;;;5072327;28;20029;-66
2024/01/14 08:00:44;;;;;;;37.90;13.02;;;2.80;99.90;;;;;;5071330;28;20043;-66
2024/01/14 08:03:11;;;;;;;32.60;11.70;;;2.80;99.90;;;;;;5072027;28;20025;-67
2024/01/14 08:05:38;;;;;;;39.45;13.95;;;2.80;99.90;;;;;;5072187;28;20025;-66
2024/01/14 08:08:04;;;;;;;41.88;13.57;;;2.80;99.90;;;;;;5072045;28;20036;-67
2024/01/14 08:10:30;;;;;;;43.88;13.48;;;2.80;99.90;;;;;;5072159;28;20028;-66
2024/01/14 08:12:56;;;;;;;35.92;12.80;;;2.80;99.90;;;;;;5072103;28;20081;-65
2024/01/14 08:15:22;;;;;;;41.47;13.38;;;2.80;99.90;;;;;;5072074;28;20032;-66
2024/01/14 08:17:48;;;;;;;39.58;12.88;;;2.80;99.90;;;;;;5072151;28;20048;-66
2024/01/14 08:20:14;;;;;;;40.00;13.75;;;2.80;99.90;;;;;;5071915;28;20044;-66
2024/01/14 08:22:39;;;;;;;38.13;12.43;;;2.80;99.90;;;;;;5072090;28;20037;-66
2024/01/14 08:25:07;;;;;;;37.08;14.05;;;2.80;99.90;;;;;;5072083;28;20035;-66
2024/01/14 08:27:33;;;;;;;40.83;14.55;;;2.80;99.90;;;;;;5071980;28;20033;-66
2024/01/14 08:29:59;;;;;;;39.38;13.80;;;2.80;99.90;;;;;;5071973;28;20123;-66
2024/01/14 08:32:24;;;;;;;41.75;13.02;;;2.80;99.90;;;;;;5071783;28;20025;-66
2024/01/14 08:34:50;;;;;;;37.83;11.73;;;2.80;99.90;;;;;;5071942;28;20032;-67
2024/01/14 08:37:16;;;;;;;35.95;12.55;;;2.80;99.90;;;;;;5071831;28;20655;-66
2024/01/14 08:39:41;;;;;;;40.10;13.00;;;2.80;99.90;;;;;;5071891;28;20028;-66
2024/01/14 08:42:07;;;;;;;36.08;12.43;;;2.80;99.90;;;;;;5071936;28;20503;-66
2024/01/14 08:44:33;;;;;;;41.10;13.73;;;2.80;99.90;;;;;;5071904;28;20051;-66
2024/01/14 08:46:59;;;;;;;41.58;14.52;;;2.80;99.90;;;;;;5071862;28;20029;-66
2024/01/14 08:49:29;;;;;;;35.40;12.15;;;2.70;99.90;;;;;;5071758;28;20033;-66
2024/01/14 08:51:58;;;;;;;37.85;12.18;;;2.80;99.90;;;;;;5075314;28;20045;-66
2024/01/14 08:54:24;;;;;;;37.47;12.43;;;2.80;99.90;;;;;;5075682;28;20017;-66
2024/01/14 08:56:49;;;;;;;36.30;12.27;;;2.80;99.90;;;;;;5075539;28;20033;-66
2024/01/14 08:59:15;;;;;;;35.65;13.10;;;2.80;99.90;;;;;;5075597;28;20104;-66
2024/01/14 09:01:40;;;;;;;35.72;14.00;;;2.80;99.90;;;;;;5075583;28;20033;-66
2024/01/14 09:04:06;;;;;;;32.83;12.02;;;2.80;99.90;;;;;;5075280;28;20033;-66
2024/01/14 09:06:32;;;;;;;38.65;12.63;;;2.80;99.90;;;;;;5075501;28;20029;-66
2024/01/14 09:08:57;;;;;;;40.92;13.75;;;2.80;99.90;;;;;;5075317;28;20059;-66
2024/01/14 09:11:23;;;;;;;32.63;12.35;;;2.90;99.90;;;;;;5075398;28;20451;-66
2024/01/14 09:13:48;;;;;;;38.83;13.35;;;2.90;99.90;;;;;;5075391;28;20021;-66
2024/01/14 09:16:14;;;;;;;36.83;11.85;;;2.90;99.90;;;;;;5075350;28;20507;-66
2024/01/14 09:18:40;;;;;;;42.65;12.15;;;2.90;99.90;;;;;;5074071;28;20032;-66
2024/01/14 09:21:06;;;;;;;40.35;12.48;;;2.90;99.90;;;;;;5075188;28;20039;-66
2024/01/14 09:23:32;;;;;;;39.78;13.75;;;2.80;99.90;;;;;;5075191;28;20037;-66
2024/01/14 09:25:58;;;;;;;43.05;15.77;;;2.90;99.90;;;;;;5075066;28;20093;-66
2024/01/14 09:28:26;;;;;;;41.83;14.50;;;2.90;99.90;;;;;;5074943;28;20028;-66
2024/01/14 09:30:53;;;;;;;45.78;16.40;;;2.80;99.90;;;;;;5075018;28;20052;-65
2024/01/14 09:33:19;;;;;;;39.65;13.05;;;2.80;99.90;;;;;;5074697;28;20108;-66
2024/01/14 09:35:44;;;;;;;33.40;12.65;;;2.80;99.90;;;;;;5074938;28;20024;-66
2024/01/14 09:38:11;;;;;;;35.42;11.75;;;2.80;99.90;;;;;;5074929;28;20036;-66
2024/01/14 09:40:36;;;;;;;42.22;14.30;;;2.80;99.90;;;;;;5074875;28;20055;-66
2024/01/14 09:43:06;;;;;;;36.00;12.75;;;2.80;99.90;;;;;;5074803;28;20081;-67
2024/01/14 09:45:34;;;;;;;41.50;14.05;;;2.80;99.90;;;;;;5074803;28;20031;-67
2024/01/14 09:48:01;;;;;;;38.22;12.57;;;2.90;99.90;;;;;;5073191;28;20021;-66
2024/01/14 09:50:27;;;;;;;42.55;13.98;;;2.90;99.90;;;;;;5073364;28;20068;-66
2024/01/14 09:52:57;;;;;;;37.17;12.93;;;2.90;99.90;;;;;;5074157;28;20029;-67
2024/01/14 09:55:24;;;;;;;40.92;14.80;;;2.90;99.90;;;;;;5073640;28;20073;-67
2024/01/14 09:57:52;;;;;;;34.85;12.90;;;3.00;99.90;;;;;;5074452;28;20071;-66
2024/01/14 10:00:22;;;;;;;37.00;13.88;;;3.00;99.90;;;;;;5074296;28;20040;-66
2024/01/14 10:02:48;;;;;;;38.13;13.80;;;3.00;99.90;;;;;;5074139;28;20029;-66
2024/01/14 10:05:14;;;;;;;39.92;12.98;;;3.00;99.90;;;;;;5074381;28;20048;-66
2024/01/14 10:07:41;;;;;;;38.35;13.82;;;3.00;99.90;;;;;;5074255;28;20040;-66
2024/01/14 10:10:07;;;;;;;40.47;12.73;;;3.00;99.90;;;;;;5074313;28;20018;-66
2024/01/14 10:12:33;;;;;;;45.00;13.00;;;3.00;99.90;;;;;;5074371;28;20036;-66
2024/01/14 10:15:00;;;;;;;42.22;13.38;;;3.00;99.90;;;;;;5074090;28;20051;-66
2024/01/14 10:17:27;;;;;;;34.50;12.13;;;3.00;99.90;;;;;;5074139;28;20020;-66
2024/01/14 10:19:59;;;;;;;44.92;14.70;;;3.10;99.90;;;;;;5073985;28;20025;-66
2024/01/14 10:22:28;;;;;;;39.15;12.80;;;3.10;99.90;;;;;;5073665;28;20099;-66
2024/01/14 10:24:55;;;;;;;46.25;13.48;;;3.10;99.90;;;;;;5073949;28;20025;-66
2024/01/14 10:27:22;;;;;;;37.55;12.70;;;3.10;99.90;;;;;;5073886;28;20073;-66
2024/01/14 10:29:49;;;;;;;36.95;12.07;;;3.10;99.90;;;;;;5073898;28;20017;-66
2024/01/14 10:32:15;;;;;;;41.10;12.93;;;3.10;99.90;;;;;;5073718;28;20026;-66
2024/01/14 10:34:41;;;;;;;40.45;13.50;;;3.10;99.90;;;;;;5073830;28;20033;-67
2024/01/14 10:37:07;;;;;;;38.85;13.55;;;3.10;99.90;;;;;;5073733;28;20550;-66
2024/01/14 10:39:34;;;;;;;37.17;13.40;;;3.20;99.90;;;;;;5073778;28;20021;-67
2024/01/14 10:42:01;;;;;;;43.58;13.05;;;3.20;99.90;;;;;;5073656;28;20031;-66
2024/01/14 10:44:35;;;;;;;39.92;12.57;;;3.30;99.90;;;;;;5073669;28;20028;-66
2024/01/14 10:47:03;;;;;;;33.38;12.63;;;3.20;99.90;;;;;;5073689;28;20057;-66
2024/01/14 10:49:30;;;;;;;39.25;13.65;;;3.30;99.90;;;;;;5073438;28;20025;-66
2024/01/14 10:52:08;;;;;;;31.17;11.27;;;3.30;99.90;;;;;;5073368;28;20109;-65
2024/01/14 10:54:39;;;;;;;38.75;14.82;;;3.30;99.90;;;;;;5073453;28;20101;-66
2024/01/14 10:57:34;;;;;;;32.65;12.35;;;3.30;99.90;;;;;;5073430;28;20020;-67
2024/01/14 11:00:10;;;;;;;38.42;13.07;;;3.20;99.90;;;;;;5072856;28;20041;-66
2024/01/14 11:02:37;;;;;;;42.65;13.20;;;3.30;99.90;;;;;;5073106;28;20055;-66
2024/01/14 11:05:05;;;;;;;36.78;11.98;;;3.30;99.90;;;;;;5073142;28;20025;-66
2024/01/14 11:07:35;;;;;;;33.92;12.43;;;3.30;99.90;;;;;;5073023;28;20025;-66
2024/01/14 11:10:02;;;;;;;35.17;12.05;;;3.30;99.90;;;;;;5073057;28;20017;-66
2024/01/14 11:12:38;;;;;;;36.35;11.60;;;3.30;99.90;;;;;;5072796;28;20039;-66
2024/01/14 11:15:13;;;;;;;35.15;12.18;;;3.30;99.90;;;;;;5071996;28;20025;-66
2024/01/14 11:17:55;;;;;;;33.45;11.43;;;3.30;99.90;;;;;;5072660;28;20028;-66
2024/01/14 11:20:25;;;;;;;38.35;13.45;;;3.30;99.90;;;;;;5072466;28;20021;-67
2024/01/14 11:22:55;;;;;;;29.73;11.40;;;3.20;99.90;;;;;;5072658;28;20021;-66
2024/01/14 11:25:22;;;;;;;35.03;12.18;;;3.20;99.90;;;;;;5072626;28;20028;-66
2024/01/14 11:27:48;;;;;;;33.58;11.48;;;3.30;99.90;;;;;;5072440;28;20025;-66
2024/01/14 11:30:18;;;;;;;35.40;11.10;;;3.30;99.90;;;;;;5072299;28;20024;-66
2024/01/14 11:32:44;;;;;;;33.53;12.50;;;3.30;99.90;;;;;;5072140;28;20024;-66
2024/01/14 11:35:11;;;;;;;32.42;11.65;;;3.30;99.90;;;;;;5072269;28;20033;-67
2024/01/14 11:37:44;;;;;;;30.27;11.15;;;3.30;99.90;;;;;;5072318;28;20077;-66
2024/01/14 11:40:16;;;;;;;39.22;12.15;;;3.30;99.90;;;;;;5072311;28;20044;-67
2024/01/14 11:42:56;;;;;;;30.88;11.07;;;3.30;99.90;;;;;;5071051;28;20017;-67
2024/01/14 11:45:25;;;;;;;29.73;10.93;;;3.30;99.90;;;;;;5072176;28;20013;-67
2024/01/14 11:47:52;;;;;;;32.53;11.40;;;3.30;99.90;;;;;;5072222;28;20328;-67
2024/01/14 11:50:23;;;;;;;30.65;9.75;;;3.30;99.90;;;;;;5071900;28;20052;-66
2024/01/14 11:52:52;;;;;;;32.80;12.50;;;3.30;99.90;;;;;;5072079;28;20027;-66
2024/01/14 11:55:38;;;;;;;27.02;10.18;;;3.40;99.90;;;;;;5072091;28;20024;-67
2024/01/14 11:58:12;;;;;;;31.77;9.55;;;3.30;99.90;;;;;;5071843;28;20029;-66
2024/01/14 12:00:38;;;;;;;27.02;9.60;;;3.30;99.90;;;;;;5072068;28;20096;-62
2024/01/14 12:03:11;;;;;;;33.95;11.57;;;3.30;99.90;;;;;;5072080;28;20089;-64
2024/01/14 12:05:40;;;;;;;25.58;8.85;;;3.30;99.90;;;;;;5071881;28;20025;-61
2024/01/14 12:08:06;;;;;;;29.40;10.65;;;3.30;99.90;;;;;;5071565;28;20040;-64
2024/01/14 12:10:32;;;;;;;29.25;11.00;;;3.30;99.90;;;;;;5070911;28;20060;-64
2024/01/14 12:13:03;;;;;;;27.13;10.20;;;3.30;99.90;;;;;;5070362;28;20046;-66
2024/01/14 12:15:28;;;;;;;23.52;10.25;;;3.30;99.90;;;;;;5071653;28;20027;-64
2024/01/14 12:17:59;;;;;;;29.75;10.77;;;3.30;99.90;;;;;;5071710;28;20048;-63
2024/01/14 12:20:25;;;;;;;29.38;10.13;;;3.30;99.90;;;;;;5071457;28;20029;-63
2024/01/14 12:22:59;;;;;;;26.88;9.18;;;3.30;99.90;;;;;;5071938;28;20079;-62
2024/01/14 12:25:25;;;;;;;25.92;10.73;;;3.30;99.90;;;;;;5073197;28;20102;-63
2024/01/14 12:27:51;;;;;;;33.58;11.82;;;3.20;99.90;;;;;;5074977;28;20044;-63
2024/01/14 12:30:30;;;;;;;30.98;11.02;;;3.30;99.90;;;;;;5075729;28;20021;-65
2024/01/14 12:32:57;;;;;;;30.65;11.52;;;3.30;99.90;;;;;;5075699;28;20031;-62
2024/01/14 12:35:33;;;;;;;36.35;12.38;;;3.20;99.90;;;;;;5075902;28;20032;-61